Time;durP1;ratioP1;P1;durP2;ratioP2;P2;SDS_P1;SDS_P2;PMS_P1;PMS_P2;Temp;Humidity;BMP_temperature;BMP_pressure;BME280_temperature;BME280_humidity;BME280_pressure;Samples;Min_cycle;Max_cycle;Signal;HPM_P1;HPM_P2
2023/09/07 00:00:24;;;;;;;0.10;0.10;;;;;;;;;;6304737;28;20456;-86
2023/09/07 00:03:24;;;;;;;0.10;0.10;;;;;;;;;;6318893;28;20032;-86
2023/09/07 00:06:26;;;;;;;0.10;0.10;;;;;;;;;;6298334;28;20493;-86
2023/09/07 00:09:27;;;;;;;0.10;0.10;;;;;;;;;;6301835;28;20023;-86
2023/09/07 00:12:27;;;;;;;0.10;0.10;;;;;;;;;;6277674;28;20115;-86
2023/09/07 00:15:28;;;;;;;0.10;0.10;;;;;;;;;;6297720;28;20025;-86
2023/09/07 00:18:28;;;;;;;0.10;0.10;;;;;;;;;;6296925;28;20127;-85
2023/09/07 00:21:29;;;;;;;0.10;0.10;;;;;;;;;;6301990;28;20111;-86
2023/09/07 00:24:29;;;;;;;0.10;0.10;;;;;;;;;;6282208;28;20020;-85
2023/09/07 00:27:30;;;;;;;0.10;0.10;;;;;;;;;;6293302;28;20585;-86
2023/09/07 00:30:30;;;;;;;0.10;0.10;;;;;;;;;;6303224;28;20126;-85
2023/09/07 00:33:30;;;;;;;0.10;0.10;;;;;;;;;;6296536;28;20032;-85
2023/09/07 00:36:30;;;;;;;0.10;0.10;;;;;;;;;;6298053;28;20017;-75
2023/09/07 00:39:30;;;;;;;0.10;0.10;;;;;;;;;;6308008;28;20012;-74
2023/09/07 00:42:30;;;;;;;0.10;0.10;;;;;;;;;;6298049;28;20024;-74
2023/09/07 00:45:31;;;;;;;0.10;0.10;;;;;;;;;;6295133;28;20015;-74
2023/09/07 00:48:31;;;;;;;0.10;0.10;;;;;;;;;;6297786;28;20012;-74
2023/09/07 00:51:32;;;;;;;0.10;0.10;;;;;;;;;;6294199;28;20031;-74
2023/09/07 00:54:32;;;;;;;0.10;0.10;;;;;;;;;;6309486;28;20024;-74
2023/09/07 00:57:32;;;;;;;0.10;0.10;;;;;;;;;;6305316;28;20044;-74
2023/09/07 01:00:35;;;;;;;0.10;0.10;;;;;;;;;;6303349;28;20044;-74
2023/09/07 01:03:35;;;;;;;0.20;0.20;;;;;;;;;;6308461;28;20099;-74
2023/09/07 01:06:38;;;;;;;0.10;0.10;;;;;;;;;;6337160;22;20552;-84
2023/09/07 01:09:39;;;;;;;0.10;0.10;;;;;;;;;;6268519;28;20028;-87
2023/09/07 01:12:40;;;;;;;0.20;0.20;;;;;;;;;;6301936;28;20103;-87
2023/09/07 01:15:40;;;;;;;0.10;0.10;;;;;;;;;;6289558;28;20484;-87
2023/09/07 01:18:41;;;;;;;0.10;0.10;;;;;;;;;;6294129;28;20478;-87
2023/09/07 01:21:42;;;;;;;0.10;0.10;;;;;;;;;;6293337;28;20032;-87
2023/09/07 01:24:45;;;;;;;0.10;0.10;;;;;;;;;;6279005;28;20111;-88
2023/09/07 01:27:45;;;;;;;0.10;0.10;;;;;;;;;;6281007;28;20378;-87
2023/09/07 01:30:46;;;;;;;0.10;0.10;;;;;;;;;;6290348;28;20017;-87
2023/09/07 01:33:46;;;;;;;0.20;0.20;;;;;;;;;;6277336;28;20021;-87
2023/09/07 01:36:47;;;;;;;0.10;0.10;;;;;;;;;;6290947;28;20020;-84
2023/09/07 01:39:48;;;;;;;0.10;0.10;;;;;;;;;;6293570;28;20077;-84
2023/09/07 01:42:49;;;;;;;0.20;0.20;;;;;;;;;;6289499;28;20016;-84
2023/09/07 01:45:49;;;;;;;0.20;0.20;;;;;;;;;;6278826;28;20032;-82
2023/09/07 01:48:49;;;;;;;0.10;0.10;;;;;;;;;;6287623;28;20467;-82
2023/09/07 01:51:51;;;;;;;0.10;0.10;;;;;;;;;;6277314;28;20032;-82
2023/09/07 01:54:51;;;;;;;0.10;0.10;;;;;;;;;;6291806;28;20025;-82
2023/09/07 01:57:51;;;;;;;0.20;0.20;;;;;;;;;;6287574;28;20405;-82
2023/09/07 02:00:58;;;;;;;0.10;0.10;;;;;;;;;;6292934;28;20051;-83
2023/09/07 02:03:58;;;;;;;0.10;0.10;;;;;;;;;;6255503;28;20020;-83
2023/09/07 02:07:00;;;;;;;0.10;0.10;;;;;;;;;;6255027;28;20494;-82
2023/09/07 02:10:01;;;;;;;0.20;0.20;;;;;;;;;;6270970;28;20135;-83
2023/09/07 02:13:01;;;;;;;0.10;0.10;;;;;;;;;;6287315;28;20017;-82
2023/09/07 02:16:05;;;;;;;0.10;0.10;;;;;;;;;;6263706;28;20327;-83
2023/09/07 02:19:06;;;;;;;0.10;0.10;;;;;;;;;;6297383;28;20017;-82
2023/09/07 02:22:06;;;;;;;0.10;0.10;;;;;;;;;;6290525;28;20093;-82
2023/09/07 02:25:07;;;;;;;0.10;0.10;;;;;;;;;;6286318;28;20036;-84
2023/09/07 02:28:07;;;;;;;0.10;0.10;;;;;;;;;;6292898;28;20779;-84
2023/09/07 02:31:08;;;;;;;0.10;0.10;;;;;;;;;;6288964;28;20462;-83
2023/09/07 02:34:08;;;;;;;0.20;0.20;;;;;;;;;;6283511;28;20017;-84
2023/09/07 02:37:08;;;;;;;0.10;0.10;;;;;;;;;;6294530;28;20063;-83
2023/09/07 02:40:09;;;;;;;0.10;0.10;;;;;;;;;;6302282;28;20028;-84
2023/09/07 02:43:10;;;;;;;0.10;0.10;;;;;;;;;;6295891;28;20365;-83
2023/09/07 02:46:10;;;;;;;0.10;0.10;;;;;;;;;;6274969;28;20025;-84
2023/09/07 02:49:10;;;;;;;0.20;0.20;;;;;;;;;;6288100;28;20111;-84
2023/09/07 02:52:11;;;;;;;0.10;0.10;;;;;;;;;;6292807;28;20016;-83
2023/09/07 02:55:11;;;;;;;0.10;0.10;;;;;;;;;;6295850;28;20414;-83
2023/09/07 02:58:11;;;;;;;0.20;0.20;;;;;;;;;;6264035;28;20537;-84
2023/09/07 03:01:13;;;;;;;0.20;0.20;;;;;;;;;;6277175;28;20032;-84
2023/09/07 03:04:13;;;;;;;0.10;0.10;;;;;;;;;;6274133;28;20115;-84
2023/09/07 03:07:13;;;;;;;0.20;0.20;;;;;;;;;;6285448;28;20105;-84
2023/09/07 03:10:13;;;;;;;0.20;0.20;;;;;;;;;;6277852;28;20748;-83
2023/09/07 03:13:14;;;;;;;0.10;0.10;;;;;;;;;;6299912;28;20462;-84
2023/09/07 03:16:14;;;;;;;0.10;0.10;;;;;;;;;;6279901;28;20123;-84
2023/09/07 03:19:14;;;;;;;0.10;0.10;;;;;;;;;;6272801;28;20028;-83
2023/09/07 03:22:14;;;;;;;0.20;0.20;;;;;;;;;;6274926;28;20528;-83
2023/09/07 03:25:15;;;;;;;0.10;0.10;;;;;;;;;;6294478;28;20462;-84
2023/09/07 03:28:15;;;;;;;0.10;0.10;;;;;;;;;;6295912;28;20055;-82
2023/09/07 03:31:15;;;;;;;0.20;0.20;;;;;;;;;;6307511;28;20058;-82
2023/09/07 03:34:16;;;;;;;0.20;0.20;;;;;;;;;;6292805;28;20013;-82
2023/09/07 03:37:16;;;;;;;0.20;0.20;;;;;;;;;;6286000;28;20525;-82
2023/09/07 03:40:16;;;;;;;0.10;0.10;;;;;;;;;;6290503;28;20029;-82
2023/09/07 03:43:17;;;;;;;0.20;0.20;;;;;;;;;;6292223;28;20546;-82
2023/09/07 03:46:17;;;;;;;0.10;0.10;;;;;;;;;;6275897;28;20025;-82
2023/09/07 03:49:17;;;;;;;0.20;0.20;;;;;;;;;;6295451;28;20054;-83
2023/09/07 03:52:18;;;;;;;0.20;0.20;;;;;;;;;;6290882;28;20083;-82
2023/09/07 03:55:18;;;;;;;0.20;0.20;;;;;;;;;;6280764;28;20021;-83
2023/09/07 03:58:18;;;;;;;0.20;0.20;;;;;;;;;;6278186;28;20474;-83
2023/09/07 04:01:18;;;;;;;0.10;0.10;;;;;;;;;;6278399;28;20485;-83
2023/09/07 04:04:19;;;;;;;0.20;0.20;;;;;;;;;;6271089;28;20052;-82
2023/09/07 04:07:19;;;;;;;0.20;0.20;;;;;;;;;;6249270;28;20052;-82
2023/09/07 04:10:19;;;;;;;0.10;0.10;;;;;;;;;;6246144;28;21151;-82
2023/09/07 04:13:20;;;;;;;0.17;0.17;;;;;;;;;;6250898;28;20029;-82
2023/09/07 04:16:20;;;;;;;0.20;0.20;;;;;;;;;;6276359;28;20032;-83
2023/09/07 04:19:20;;;;;;;0.17;0.17;;;;;;;;;;6267109;28;20021;-82
2023/09/07 04:22:21;;;;;;;0.20;0.20;;;;;;;;;;6269543;28;20036;-82
2023/09/07 04:25:21;;;;;;;0.10;0.10;;;;;;;;;;6276180;28;20632;-83
2023/09/07 04:28:22;;;;;;;0.10;0.10;;;;;;;;;;6270961;28;20470;-82
2023/09/07 04:31:27;;;;;;;0.20;0.20;;;;;;;;;;6269133;28;20108;-82
2023/09/07 04:34:27;;;;;;;0.10;0.10;;;;;;;;;;6245769;28;20474;-83
2023/09/07 04:37:27;;;;;;;0.20;0.20;;;;;;;;;;6275446;28;20074;-83
2023/09/07 04:40:27;;;;;;;0.10;0.10;;;;;;;;;;6243406;28;20108;-82
2023/09/07 04:43:27;;;;;;;0.10;0.10;;;;;;;;;;6263321;28;20021;-83
2023/09/07 04:46:28;;;;;;;0.20;0.20;;;;;;;;;;6248966;28;20032;-86
2023/09/07 04:49:28;;;;;;;0.10;0.10;;;;;;;;;;6252766;28;20108;-86
2023/09/07 04:52:28;;;;;;;0.20;0.20;;;;;;;;;;6256424;28;20017;-85
2023/09/07 04:55:28;;;;;;;0.10;0.10;;;;;;;;;;6256024;28;20494;-85
2023/09/07 04:58:29;;;;;;;0.10;0.10;;;;;;;;;;6286019;28;20104;-88
2023/09/07 05:01:29;;;;;;;0.10;0.10;;;;;;;;;;6288045;28;20021;-88
2023/09/07 05:04:30;;;;;;;0.10;0.10;;;;;;;;;;6264978;28;20086;-86
2023/09/07 05:07:30;;;;;;;0.10;0.10;;;;;;;;;;6286048;28;20573;-85
2023/09/07 05:10:34;;;;;;;0.10;0.10;;;;;;;;;;6293698;28;20083;-85
2023/09/07 05:13:34;;;;;;;0.10;0.10;;;;;;;;;;6301922;28;20027;-87
2023/09/07 05:16:34;;;;;;;0.10;0.10;;;;;;;;;;6283161;28;20051;-87
2023/09/07 05:19:34;;;;;;;0.10;0.10;;;;;;;;;;6292808;28;20024;-87
2023/09/07 05:22:37;;;;;;;0.10;0.10;;;;;;;;;;6271625;28;20028;-87
2023/09/07 05:25:42;;;;;;;0.10;0.10;;;;;;;;;;6289094;28;20023;-87
2023/09/07 05:28:43;;;;;;;0.10;0.10;;;;;;;;;;6288005;28;20498;-87
2023/09/07 05:31:43;;;;;;;0.10;0.10;;;;;;;;;;6301835;28;20032;-86
2023/09/07 05:34:43;;;;;;;0.10;0.10;;;;;;;;;;6267787;28;20020;-86
2023/09/07 05:37:43;;;;;;;0.00;0.00;;;;;;;;;;6288171;28;20386;-86
2023/09/07 05:40:44;;;;;;;0.10;0.10;;;;;;;;;;6288671;28;20083;-85
2023/09/07 05:43:44;;;;;;;0.10;0.10;;;;;;;;;;6280637;28;20044;-86
2023/09/07 05:46:44;;;;;;;0.00;0.00;;;;;;;;;;6284135;28;20475;-86
2023/09/07 05:49:45;;;;;;;0.10;0.10;;;;;;;;;;6297344;28;20017;-86
2023/09/07 05:52:45;;;;;;;0.07;0.07;;;;;;;;;;6289648;28;20086;-86
2023/09/07 05:55:45;;;;;;;0.00;0.00;;;;;;;;;;6293932;28;20020;-83
2023/09/07 05:58:45;;;;;;;0.00;0.00;;;;;;;;;;6308709;28;20016;-82
2023/09/07 06:01:46;;;;;;;0.00;0.00;;;;;;;;;;6298320;28;20516;-81
2023/09/07 06:04:49;;;;;;;0.00;0.00;;;;;;;;;;6275863;28;20366;-82
2023/09/07 06:07:49;;;;;;;0.10;0.10;;;;;;;;;;6276574;28;20028;-82
2023/09/07 06:10:50;;;;;;;0.00;0.00;;;;;;;;;;6276408;28;20378;-82
2023/09/07 06:13:50;;;;;;;0.07;0.07;;;;;;;;;;6280668;28;20067;-83
2023/09/07 06:16:51;;;;;;;0.00;0.00;;;;;;;;;;6286166;28;20052;-82
2023/09/07 06:19:51;;;;;;;0.00;0.00;;;;;;;;;;6301666;28;20012;-83
2023/09/07 06:22:51;;;;;;;0.00;0.00;;;;;;;;;;6280181;28;20021;-84
2023/09/07 06:25:52;;;;;;;0.00;0.00;;;;;;;;;;6270707;28;20083;-83
2023/09/07 06:28:52;;;;;;;0.00;0.00;;;;;;;;;;6291450;28;20560;-83
2023/09/07 06:31:52;;;;;;;0.00;0.00;;;;;;;;;;6297140;28;20128;-83
2023/09/07 06:34:52;;;;;;;0.00;0.00;;;;;;;;;;6297289;28;20082;-83
2023/09/07 06:37:53;;;;;;;0.00;0.00;;;;;;;;;;6280840;28;20048;-83
2023/09/07 06:40:53;;;;;;;0.00;0.00;;;;;;;;;;6275519;28;20201;-84
2023/09/07 06:43:53;;;;;;;0.00;0.00;;;;;;;;;;6288401;28;20466;-83
2023/09/07 06:46:53;;;;;;;0.00;0.00;;;;;;;;;;6267850;28;20438;-83
2023/09/07 06:49:54;;;;;;;0.00;0.00;;;;;;;;;;6293042;28;20631;-84
2023/09/07 06:52:55;;;;;;;0.00;0.00;;;;;;;;;;6287848;28;20020;-83
2023/09/07 06:55:58;;;;;;;0.00;0.00;;;;;;;;;;6290550;28;20448;-84
2023/09/07 06:58:59;;;;;;;0.00;0.00;;;;;;;;;;6305457;28;20021;-84
2023/09/07 07:02:00;;;;;;;0.00;0.00;;;;;;;;;;6273229;28;20466;-83
2023/09/07 07:05:01;;;;;;;0.00;0.00;;;;;;;;;;6298532;28;20043;-91
2023/09/07 07:08:01;;;;;;;0.00;0.00;;;;;;;;;;6305458;28;20424;-84
2023/09/07 07:11:01;;;;;;;0.00;0.00;;;;;;;;;;6276210;28;20028;-84
2023/09/07 07:14:02;;;;;;;0.00;0.00;;;;;;;;;;6298423;28;20015;-83
2023/09/07 07:17:04;;;;;;;0.00;0.00;;;;;;;;;;6274395;28;20441;-83
2023/09/07 07:20:05;;;;;;;0.00;0.00;;;;;;;;;;6290191;28;20492;-84
2023/09/07 07:23:08;;;;;;;0.00;0.00;;;;;;;;;;6268676;28;20021;-84
2023/09/07 07:26:08;;;;;;;0.00;0.00;;;;;;;;;;6308020;28;20027;-83
2023/09/07 07:29:09;;;;;;;0.00;0.00;;;;;;;;;;6289889;28;20016;-83
2023/09/07 07:32:09;;;;;;;0.00;0.00;;;;;;;;;;6306084;28;20811;-83
2023/09/07 07:35:09;;;;;;;0.00;0.00;;;;;;;;;;6282684;28;20754;-83
2023/09/07 07:38:13;;;;;;;0.00;0.00;;;;;;;;;;6291139;28;20019;-83
2023/09/07 07:41:13;;;;;;;0.00;0.00;;;;;;;;;;6254185;28;20313;-84
2023/09/07 07:44:14;;;;;;;0.00;0.00;;;;;;;;;;6286402;28;20397;-84
2023/09/07 07:47:14;;;;;;;0.00;0.00;;;;;;;;;;6290345;28;20025;-83
2023/09/07 07:50:15;;;;;;;0.00;0.00;;;;;;;;;;6286503;28;20390;-84
2023/09/07 07:53:15;;;;;;;0.00;0.00;;;;;;;;;;6288241;28;20017;-83
2023/09/07 07:56:18;;;;;;;0.00;0.00;;;;;;;;;;6288659;28;20111;-84
2023/09/07 07:59:18;;;;;;;0.00;0.00;;;;;;;;;;6275447;28;20028;-84
2023/09/07 08:02:20;;;;;;;0.00;0.00;;;;;;;;;;6298865;28;20056;-84
2023/09/07 08:05:20;;;;;;;0.00;0.00;;;;;;;;;;6299722;28;20040;-84
2023/09/07 08:08:21;;;;;;;0.00;0.00;;;;;;;;;;6288227;28;20032;-84
2023/09/07 08:11:21;;;;;;;0.00;0.00;;;;;;;;;;6307604;28;20396;-83
2023/09/07 08:14:22;;;;;;;0.00;0.00;;;;;;;;;;6293528;28;20087;-83
2023/09/07 08:17:23;;;;;;;0.00;0.00;;;;;;;;;;6281818;28;20036;-83
2023/09/07 08:20:24;;;;;;;0.00;0.00;;;;;;;;;;6287382;28;20769;-84
2023/09/07 08:23:26;;;;;;;0.00;0.00;;;;;;;;;;6298567;28;20027;-83
2023/09/07 08:26:26;;;;;;;0.00;0.00;;;;;;;;;;6300001;28;20016;-83
2023/09/07 08:29:27;;;;;;;0.00;0.00;;;;;;;;;;6289270;28;20020;-83
2023/09/07 08:32:27;;;;;;;0.00;0.00;;;;;;;;;;6295976;28;20016;-84
2023/09/07 08:35:27;;;;;;;0.00;0.00;;;;;;;;;;6291829;28;20017;-84
2023/09/07 08:38:27;;;;;;;0.00;0.00;;;;;;;;;;6316824;28;20024;-83
2023/09/07 08:41:28;;;;;;;0.00;0.00;;;;;;;;;;6276381;28;20387;-83
2023/09/07 08:44:29;;;;;;;0.00;0.00;;;;;;;;;;6306014;28;20052;-83
2023/09/07 08:47:31;;;;;;;;;;;;;;;;;;6299362;28;20023;-82
2023/09/07 08:50:31;;;;;;;0.00;0.00;;;;;;;;;;6296593;28;19908;-83
2023/09/07 08:53:32;;;;;;;0.00;0.00;;;;;;;;;;6290649;28;20035;-83
2023/09/07 08:56:33;;;;;;;0.00;0.00;;;;;;;;;;6289024;28;20402;-84
2023/09/07 08:59:33;;;;;;;0.00;0.00;;;;;;;;;;6292084;28;20123;-83
2023/09/07 09:02:33;;;;;;;0.00;0.00;;;;;;;;;;6301660;28;20103;-83
2023/09/07 09:05:34;;;;;;;0.00;0.00;;;;;;;;;;6296221;28;20031;-83
2023/09/07 09:09:00;;;;;;;0.00;0.00;;;;;;;;;;6284492;28;20657;-82
2023/09/07 09:12:10;;;;;;;0.00;0.00;;;;;;;;;;6292555;28;20037;-83
2023/09/07 09:15:11;;;;;;;0.00;0.00;;;;;;;;;;6284125;28;20069;-83
2023/09/07 09:18:12;;;;;;;0.00;0.00;;;;;;;;;;6274569;28;20461;-83
2023/09/07 09:21:12;;;;;;;;;;;;;;;;;;6298702;28;20016;-83
2023/09/07 09:24:14;;;;;;;0.00;0.00;;;;;;;;;;6296468;28;19908;-82
2023/09/07 09:27:14;;;;;;;0.00;0.00;;;;;;;;;;6305860;28;20017;-83
2023/09/07 09:30:16;;;;;;;0.00;0.00;;;;;;;;;;6294655;28;20071;-83
2023/09/07 09:33:19;;;;;;;0.00;0.00;;;;;;;;;;6289902;28;20597;-83
2023/09/07 09:36:20;;;;;;;0.00;0.00;;;;;;;;;;6290061;28;20024;-82
2023/09/07 09:39:24;;;;;;;0.00;0.00;;;;;;;;;;6286582;28;20027;-83
2023/09/07 09:42:25;;;;;;;0.00;0.00;;;;;;;;;;6308840;28;20016;-82
2023/09/07 09:45:26;;;;;;;0.00;0.00;;;;;;;;;;6309672;28;20016;-82
2023/09/07 09:48:27;;;;;;;0.00;0.00;;;;;;;;;;6307485;28;20020;-82
2023/09/07 09:51:28;;;;;;;0.00;0.00;;;;;;;;;;6292809;28;20386;-83
2023/09/07 09:54:29;;;;;;;0.00;0.00;;;;;;;;;;6302948;28;20019;-83
2023/09/07 09:57:30;;;;;;;0.00;0.00;;;;;;;;;;6253172;28;20367;-83
2023/09/07 10:00:31;;;;;;;0.00;0.00;;;;;;;;;;6293042;28;20100;-82
2023/09/07 10:03:32;;;;;;;0.00;0.00;;;;;;;;;;6306804;28;20619;-82
2023/09/07 10:06:35;;;;;;;0.00;0.00;;;;;;;;;;6294253;28;20048;-82
2023/09/07 10:09:36;;;;;;;0.00;0.00;;;;;;;;;;6290312;28;20510;-82
2023/09/07 10:12:43;;;;;;;0.00;0.00;;;;;;;;;;6281103;28;20023;-82
2023/09/07 10:15:44;;;;;;;0.00;0.00;;;;;;;;;;6282264;28;20070;-83
2023/09/07 10:18:44;;;;;;;0.00;0.00;;;;;;;;;;6281318;28;20039;-83
2023/09/07 10:21:44;;;;;;;0.00;0.00;;;;;;;;;;6299487;28;20525;-83
2023/09/07 10:24:56;;;;;;;0.00;0.00;;;;;;;;;;6301686;28;20077;-83
2023/09/07 10:27:56;;;;;;;;;;;;;;;;;;6301456;28;20047;-83
2023/09/07 10:31:00;;;;;;;0.00;0.00;;;;;;;;;;6297503;28;19905;-82
2023/09/07 10:34:10;;;;;;;0.00;0.00;;;;;;;;;;6286502;28;20092;-83
2023/09/07 10:37:13;;;;;;;0.00;0.00;;;;;;;;;;6287106;28;20478;-83
2023/09/07 10:40:18;;;;;;;0.00;0.00;;;;;;;;;;6306852;28;20774;-83
2023/09/07 10:43:18;;;;;;;0.00;0.00;;;;;;;;;;6310107;28;20016;-83
2023/09/07 10:46:20;;;;;;;0.00;0.00;;;;;;;;;;6279786;28;20018;-84
2023/09/07 10:49:20;;;;;;;0.00;0.00;;;;;;;;;;6294355;28;20115;-83
2023/09/07 10:52:20;;;;;;;0.00;0.00;;;;;;;;;;6299875;28;20023;-82
2023/09/07 10:55:20;;;;;;;0.00;0.00;;;;;;;;;;6293594;28;20024;-83
2023/09/07 10:58:28;;;;;;;0.00;0.00;;;;;;;;;;6268100;28;20521;-82
2023/09/07 11:01:28;;;;;;;0.00;0.00;;;;;;;;;;6282787;28;20069;-83
2023/09/07 11:04:29;;;;;;;0.00;0.00;;;;;;;;;;6302743;28;20008;-82
2023/09/07 11:07:29;;;;;;;0.00;0.00;;;;;;;;;;6300797;28;20048;-82
2023/09/07 11:10:31;;;;;;;0.00;0.00;;;;;;;;;;6286781;28;20115;-83
2023/09/07 11:13:32;;;;;;;0.00;0.00;;;;;;;;;;6291790;28;20505;-83
2023/09/07 11:16:33;;;;;;;0.00;0.00;;;;;;;;;;6303455;28;20027;-83
2023/09/07 11:19:33;;;;;;;0.00;0.00;;;;;;;;;;6295855;28;20086;-83
2023/09/07 11:22:35;;;;;;;0.00;0.00;;;;;;;;;;6277196;28;20029;-84
2023/09/07 11:25:38;;;;;;;0.00;0.00;;;;;;;;;;6283779;28;20020;-83
2023/09/07 11:28:40;;;;;;;0.00;0.00;;;;;;;;;;6282044;28;20111;-82
2023/09/07 11:31:41;;;;;;;0.00;0.00;;;;;;;;;;6287267;28;20023;-83
2023/09/07 11:34:49;;;;;;;0.00;0.00;;;;;;;;;;6301504;28;20478;-83
2023/09/07 11:37:51;;;;;;;0.00;0.00;;;;;;;;;;6280542;28;20027;-84
2023/09/07 11:40:51;;;;;;;0.00;0.00;;;;;;;;;;6303353;28;20100;-83
2023/09/07 11:43:52;;;;;;;0.00;0.00;;;;;;;;;;6303938;28;20375;-84
2023/09/07 11:46:52;;;;;;;0.00;0.00;;;;;;;;;;6314098;28;20549;-94
2023/09/07 11:49:53;;;;;;;0.00;0.00;;;;;;;;;;6303244;28;20024;-94
2023/09/07 11:52:53;;;;;;;0.00;0.00;;;;;;;;;;6304846;28;20020;-93
2023/09/07 11:55:53;;;;;;;0.00;0.00;;;;;;;;;;6304087;28;20064;-94
2023/09/07 11:58:55;;;;;;;0.00;0.00;;;;;;;;;;6298062;28;20470;-94
2023/09/07 12:01:55;;;;;;;0.00;0.00;;;;;;;;;;6288638;28;20039;-93
2023/09/07 12:04:55;;;;;;;0.00;0.00;;;;;;;;;;6279261;28;20021;-84
2023/09/07 12:07:55;;;;;;;0.00;0.00;;;;;;;;;;6286567;28;20019;-83
2023/09/07 12:10:56;;;;;;;0.00;0.00;;;;;;;;;;6302558;28;20115;-84
2023/09/07 12:13:56;;;;;;;0.00;0.00;;;;;;;;;;6273768;28;20479;-83
2023/09/07 12:16:57;;;;;;;0.00;0.00;;;;;;;;;;6302126;28;20111;-84
2023/09/07 12:19:57;;;;;;;0.00;0.00;;;;;;;;;;6309795;28;20537;-84
2023/09/07 12:22:57;;;;;;;0.00;0.00;;;;;;;;;;6310636;28;20536;-84
2023/09/07 12:25:57;;;;;;;0.00;0.00;;;;;;;;;;6306392;28;20462;-84
2023/09/07 12:28:58;;;;;;;0.00;0.00;;;;;;;;;;6312325;28;20020;-84
2023/09/07 12:31:58;;;;;;;0.00;0.00;;;;;;;;;;6282675;28;20481;-84
2023/09/07 12:34:59;;;;;;;0.00;0.00;;;;;;;;;;6308606;28;20112;-83
2023/09/07 12:37:59;;;;;;;0.00;0.00;;;;;;;;;;6279436;28;20024;-84
2023/09/07 12:40:59;;;;;;;0.00;0.00;;;;;;;;;;6298949;28;20071;-84
2023/09/07 12:44:00;;;;;;;0.00;0.00;;;;;;;;;;6275710;28;20025;-83
2023/09/07 12:47:00;;;;;;;0.00;0.00;;;;;;;;;;6298373;28;20107;-84
2023/09/07 12:50:00;;;;;;;0.00;0.00;;;;;;;;;;6307727;28;20044;-83
2023/09/07 12:53:00;;;;;;;0.00;0.00;;;;;;;;;;6294696;28;20024;-84
2023/09/07 12:56:02;;;;;;;0.00;0.00;;;;;;;;;;6277261;28;20508;-94
2023/09/07 12:59:03;;;;;;;0.00;0.00;;;;;;;;;;6308353;28;20032;-94
2023/09/07 13:02:03;;;;;;;0.00;0.00;;;;;;;;;;6295788;28;20021;-95
2023/09/07 13:05:07;;;;;;;0.00;0.00;;;;;;;;;;6284412;28;20490;-95
2023/09/07 13:08:07;;;;;;;0.00;0.00;;;;;;;;;;6297342;28;20039;-95
2023/09/07 13:11:07;;;;;;;0.00;0.00;;;;;;;;;;6299502;28;20016;-95
2023/09/07 13:14:08;;;;;;;0.00;0.00;;;;;;;;;;6306673;28;20019;-95
2023/09/07 13:17:12;;;;;;;0.00;0.00;;;;;;;;;;6289211;28;20474;-94
2023/09/07 13:20:12;;;;;;;0.00;0.00;;;;;;;;;;6268454;28;20013;-94
2023/09/07 13:23:12;;;;;;;0.00;0.00;;;;;;;;;;6280361;28;20044;-95
2023/09/07 13:26:12;;;;;;;0.00;0.00;;;;;;;;;;6286630;28;20263;-95
2023/09/07 13:29:13;;;;;;;0.00;0.00;;;;;;;;;;6299120;28;20016;-96
2023/09/07 13:32:13;;;;;;;0.00;0.00;;;;;;;;;;6289673;28;20469;-96
2023/09/07 13:35:14;;;;;;;0.00;0.00;;;;;;;;;;6298015;28;20710;-96
2023/09/07 13:38:14;;;;;;;0.00;0.00;;;;;;;;;;6294397;28;20032;-95
2023/09/07 13:41:15;;;;;;;0.00;0.00;;;;;;;;;;6280711;28;20067;-95
2023/09/07 13:44:15;;;;;;;0.00;0.00;;;;;;;;;;6302635;28;20020;-96
2023/09/07 13:47:17;;;;;;;0.00;0.00;;;;;;;;;;6290385;28;20054;-94
2023/09/07 13:50:17;;;;;;;0.00;0.00;;;;;;;;;;6298780;28;20021;-95
2023/09/07 13:53:17;;;;;;;;;;;;;;;;;;6277866;28;20094;-95
2023/09/07 13:56:17;;;;;;;0.00;0.00;;;;;;;;;;6282858;28;20282;-95
2023/09/07 13:59:18;;;;;;;;;;;;;;;;;;6276711;28;20024;-95
2023/09/07 14:02:18;;;;;;;0.00;0.00;;;;;;;;;;6280420;28;19916;-95
2023/09/07 14:05:18;;;;;;;;;;;;;;;;;;6313152;28;20453;-84
2023/09/07 14:08:23;;;;;;;0.00;0.00;;;;;;;;;;6282323;28;19908;-84
2023/09/07 14:11:23;;;;;;;0.00;0.00;;;;;;;;;;6288491;28;20035;-84
2023/09/07 14:14:23;;;;;;;0.00;0.00;;;;;;;;;;6275248;28;20052;-84
2023/09/07 14:17:24;;;;;;;0.00;0.00;;;;;;;;;;6295456;28;20469;-84
2023/09/07 14:20:24;;;;;;;0.00;0.00;;;;;;;;;;6293316;28;20614;-84
2023/09/07 14:23:25;;;;;;;0.00;0.00;;;;;;;;;;6283941;28;20259;-85
2023/09/07 14:26:25;;;;;;;0.00;0.00;;;;;;;;;;6283790;28;20021;-84
2023/09/07 14:29:27;;;;;;;0.00;0.00;;;;;;;;;;6277984;28;20409;-84
2023/09/07 14:32:27;;;;;;;0.00;0.00;;;;;;;;;;6273642;28;20031;-85
2023/09/07 14:35:27;;;;;;;0.00;0.00;;;;;;;;;;6290840;28;20020;-85
2023/09/07 14:38:29;;;;;;;0.00;0.00;;;;;;;;;;6291629;28;20028;-85
2023/09/07 14:41:30;;;;;;;0.00;0.00;;;;;;;;;;6293103;28;20016;-84
2023/09/07 14:44:30;;;;;;;0.00;0.00;;;;;;;;;;6288214;28;20453;-84
2023/09/07 14:47:31;;;;;;;0.00;0.00;;;;;;;;;;6274677;28;20617;-84
2023/09/07 14:50:31;;;;;;;0.00;0.00;;;;;;;;;;6288389;28;20028;-84
2023/09/07 14:53:31;;;;;;;0.00;0.00;;;;;;;;;;6275696;28;20067;-84
2023/09/07 14:56:35;;;;;;;0.00;0.00;;;;;;;;;;6305387;28;20367;-85
2023/09/07 14:59:35;;;;;;;0.00;0.00;;;;;;;;;;6315931;28;20023;-84
2023/09/07 15:02:35;;;;;;;0.00;0.00;;;;;;;;;;6300460;28;20436;-84
2023/09/07 15:05:35;;;;;;;0.00;0.00;;;;;;;;;;6312866;28;20040;-84
2023/09/07 15:08:35;;;;;;;0.00;0.00;;;;;;;;;;6297873;28;20070;-84
2023/09/07 15:11:36;;;;;;;0.00;0.00;;;;;;;;;;6290791;28;20099;-84
2023/09/07 15:14:37;;;;;;;0.00;0.00;;;;;;;;;;6305444;28;20023;-86
2023/09/07 15:17:37;;;;;;;0.00;0.00;;;;;;;;;;6300156;28;20056;-84
2023/09/07 15:20:37;;;;;;;0.00;0.00;;;;;;;;;;6294014;28;20025;-85
2023/09/07 15:23:38;;;;;;;0.00;0.00;;;;;;;;;;6277141;28;20385;-84
2023/09/07 15:26:42;;;;;;;0.00;0.00;;;;;;;;;;6284279;28;20454;-84
2023/09/07 15:29:43;;;;;;;0.00;0.00;;;;;;;;;;6291525;28;20054;-84
2023/09/07 15:32:43;;;;;;;0.00;0.00;;;;;;;;;;6286505;28;20020;-84
2023/09/07 15:35:43;;;;;;;0.00;0.00;;;;;;;;;;6301340;28;20025;-85
2023/09/07 15:38:45;;;;;;;0.00;0.00;;;;;;;;;;6285930;28;20492;-85
2023/09/07 15:41:45;;;;;;;0.00;0.00;;;;;;;;;;6298974;28;20017;-85
2023/09/07 15:44:45;;;;;;;;;;;;;;;;;;6282221;28;20389;-84
2023/09/07 15:47:47;;;;;;;0.00;0.00;;;;;;;;;;6282340;28;20341;-85
2023/09/07 15:50:48;;;;;;;0.00;0.00;;;;;;;;;;6283132;28;20595;-84
2023/09/07 15:53:49;;;;;;;0.00;0.00;;;;;;;;;;6279093;28;20055;-84
2023/09/07 15:56:49;;;;;;;;;;;;;;;;;;6306488;28;20504;-84
2023/09/07 15:59:49;;;;;;;0.00;0.00;;;;;;;;;;6290259;28;20452;-84
2023/09/07 16:02:49;;;;;;;0.00;0.00;;;;;;;;;;6306633;28;20025;-83
2023/09/07 16:05:49;;;;;;;;;;;;;;;;;;6297375;28;20313;-83
2023/09/07 16:08:50;;;;;;;0.00;0.00;;;;;;;;;;6306055;28;19908;-84
2023/09/07 16:11:52;;;;;;;;;;;;;;;;;;6308173;28;20025;-83
2023/09/07 16:14:52;;;;;;;0.00;0.00;;;;;;;;;;6307153;28;19914;-83
2023/09/07 16:17:52;;;;;;;;;;;;;;;;;;6300056;28;20012;-84
2023/09/07 16:20:53;;;;;;;0.00;0.00;;;;;;;;;;6279793;28;19912;-84
2023/09/07 16:23:53;;;;;;;;;;;;;;;;;;6290636;28;20371;-84
2023/09/07 16:26:53;;;;;;;0.00;0.00;;;;;;;;;;6291848;28;19908;-94
2023/09/07 16:29:53;;;;;;;;;;;;;;;;;;6272185;28;20016;-94
2023/09/07 16:32:53;;;;;;;0.00;0.00;;;;;;;;;;6276146;28;20335;-94
2023/09/07 16:35:54;;;;;;;;;;;;;;;;;;6297748;28;20031;-93
2023/09/07 16:38:55;;;;;;;0.00;0.00;;;;;;;;;;6307960;28;19909;-93
2023/09/07 16:41:55;;;;;;;0.00;0.00;;;;;;;;;;6285681;28;20024;-94
2023/09/07 16:44:55;;;;;;;0.00;0.00;;;;;;;;;;6287060;28;20016;-85
2023/09/07 16:47:56;;;;;;;0.00;0.00;;;;;;;;;;6298153;28;20021;-83
2023/09/07 16:50:57;;;;;;;0.00;0.00;;;;;;;;;;6307649;28;20488;-84
2023/09/07 16:53:58;;;;;;;0.00;0.00;;;;;;;;;;6270730;28;20020;-83
2023/09/07 16:56:58;;;;;;;0.00;0.00;;;;;;;;;;6303104;28;20044;-84
2023/09/07 16:59:58;;;;;;;0.00;0.00;;;;;;;;;;6292080;28;20020;-84
2023/09/07 17:02:58;;;;;;;0.00;0.00;;;;;;;;;;6297804;28;20406;-83
2023/09/07 17:05:58;;;;;;;0.00;0.00;;;;;;;;;;6283792;28;20075;-83
2023/09/07 17:08:59;;;;;;;0.00;0.00;;;;;;;;;;6280400;28;20055;-83
2023/09/07 17:11:59;;;;;;;0.00;0.00;;;;;;;;;;6295106;28;20020;-84
2023/09/07 17:14:59;;;;;;;0.00;0.00;;;;;;;;;;6291602;28;20028;-84
2023/09/07 17:18:00;;;;;;;0.00;0.00;;;;;;;;;;6290363;28;20024;-84
2023/09/07 17:21:04;;;;;;;0.00;0.00;;;;;;;;;;6290779;28;20021;-83
2023/09/07 17:24:05;;;;;;;0.00;0.00;;;;;;;;;;6271491;28;20108;-83
2023/09/07 17:27:05;;;;;;;0.00;0.00;;;;;;;;;;6287501;28;20025;-84
2023/09/07 17:30:06;;;;;;;0.00;0.00;;;;;;;;;;6266087;28;20401;-83
2023/09/07 17:33:06;;;;;;;0.00;0.00;;;;;;;;;;6284438;28;20032;-83
2023/09/07 17:36:13;;;;;;;0.00;0.00;;;;;;;;;;6269687;28;20023;-83
2023/09/07 17:39:13;;;;;;;0.10;0.10;;;;;;;;;;6279955;28;20469;-83
2023/09/07 17:42:13;;;;;;;0.10;0.10;;;;;;;;;;6281960;28;20024;-83
2023/09/07 17:45:14;;;;;;;0.00;0.00;;;;;;;;;;6264915;28;20401;-83
2023/09/07 17:48:14;;;;;;;0.10;0.10;;;;;;;;;;6285360;28;20048;-83
2023/09/07 17:51:14;;;;;;;0.10;0.10;;;;;;;;;;6295660;28;20111;-83
2023/09/07 17:54:15;;;;;;;0.00;0.00;;;;;;;;;;6282638;28;20017;-83
2023/09/07 17:57:15;;;;;;;0.00;0.00;;;;;;;;;;6292232;28;20043;-93
2023/09/07 18:00:15;;;;;;;0.10;0.10;;;;;;;;;;6290990;28;20024;-93
2023/09/07 18:03:17;;;;;;;0.10;0.10;;;;;;;;;;6288606;28;20066;-94
2023/09/07 18:06:18;;;;;;;0.10;0.10;;;;;;;;;;6259124;28;20048;-94
2023/09/07 18:09:19;;;;;;;;;;;;;;;;;;6257244;28;20021;-93